createdAt,value
2022-10-13T00:00:51.690Z,30.02
2022-10-13T00:03:54.362Z,28.70
2022-10-13T00:06:57.926Z,31.33
2022-10-13T00:10:01.599Z,31.45
2022-10-13T00:13:04.491Z,31.23
2022-10-13T00:16:07.971Z,36.03
2022-10-13T00:19:14.879Z,29.25
2022-10-13T00:22:17.947Z,28.08
2022-10-13T00:25:21.093Z,26.12
2022-10-13T00:28:24.751Z,28.55
2022-10-13T00:31:30.775Z,29.20
2022-10-13T00:34:34.306Z,30.95
2022-10-13T00:37:36.632Z,30.45
2022-10-13T00:40:49.159Z,29.60
2022-10-13T00:44:36.079Z,31.67
2022-10-13T00:47:51.495Z,27.87
2022-10-13T00:50:54.344Z,33.83
2022-10-13T00:53:58.844Z,28.67
2022-10-13T00:57:03.921Z,30.25
2022-10-13T01:00:07.544Z,26.30
2022-10-13T01:03:09.816Z,37.35
2022-10-13T01:06:12.831Z,28.42
2022-10-13T01:09:15.216Z,29.73
2022-10-13T01:12:45.012Z,28.38
2022-10-13T01:16:02.211Z,32.40
2022-10-13T01:19:27.550Z,27.45
2022-10-13T01:23:05.981Z,27.35
2022-10-13T01:26:46.049Z,28.73
2022-10-13T01:29:58.348Z,30.33
2022-10-13T01:33:09.898Z,28.85
2022-10-13T01:36:21.311Z,32.38
2022-10-13T01:39:41.644Z,28.50
2022-10-13T01:43:04.597Z,32.72
2022-10-13T01:46:16.357Z,30.30
2022-10-13T01:49:24.311Z,31.00
2022-10-13T01:52:35.272Z,28.52
2022-10-13T01:55:37.501Z,30.58
2022-10-13T01:58:40.418Z,29.23
2022-10-13T02:02:17.609Z,31.85
2022-10-13T02:05:49.125Z,30.17
2022-10-13T02:09:14.286Z,30.10
2022-10-13T02:12:23.851Z,30.62
2022-10-13T02:15:51.184Z,29.60
2022-10-13T02:18:56.249Z,29.42
2022-10-13T02:21:58.891Z,33.38
2022-10-13T02:25:01.430Z,31.58
2022-10-13T02:28:04.783Z,29.20
2022-10-13T02:31:10.614Z,26.70
2022-10-13T02:34:13.825Z,26.30
2022-10-13T02:37:17.014Z,27.92
2022-10-13T02:40:19.358Z,34.92
2022-10-13T02:43:21.891Z,31.85
2022-10-13T02:46:24.151Z,30.10
2022-10-13T02:49:26.764Z,27.80
2022-10-13T02:52:29.036Z,30.05
2022-10-13T02:55:32.026Z,32.65
2022-10-13T02:58:35.354Z,34.67
2022-10-13T03:01:41.420Z,28.73
2022-10-13T03:04:43.816Z,31.52
2022-10-13T03:07:46.289Z,32.47
2022-10-13T03:10:48.560Z,30.12
2022-10-13T03:13:51.155Z,30.48
2022-10-13T03:16:53.454Z,29.55
2022-10-13T03:19:56.045Z,29.02
2022-10-13T03:22:58.227Z,35.20
2022-10-13T03:26:00.846Z,47.08
2022-10-13T03:29:03.362Z,32.25
2022-10-13T03:32:05.883Z,36.15
2022-10-13T03:35:08.554Z,32.55
2022-10-13T03:38:11.112Z,32.50
2022-10-13T03:41:16.933Z,33.40
2022-10-13T03:44:19.888Z,36.03
2022-10-13T03:47:22.740Z,28.75
2022-10-13T03:50:25.264Z,31.53
2022-10-13T03:53:28.599Z,32.25
2022-10-13T03:56:31.274Z,26.17
2022-10-13T03:59:36.759Z,31.15
2022-10-13T04:02:39.712Z,29.60
2022-10-13T04:05:42.911Z,32.28
2022-10-13T04:08:45.147Z,29.08
2022-10-13T04:11:51.164Z,27.55
2022-10-13T04:14:53.395Z,28.27
2022-10-13T04:17:55.940Z,25.70
2022-10-13T04:20:58.511Z,34.20
2022-10-13T04:24:02.144Z,29.02
2022-10-13T04:27:04.437Z,26.70
2022-10-13T04:30:07.495Z,30.50
2022-10-13T04:33:09.968Z,37.13
2022-10-13T04:36:14.358Z,31.95
2022-10-13T04:39:16.548Z,30.15
2022-10-13T04:42:19.616Z,29.58
2022-10-13T04:45:22.050Z,28.48
2022-10-13T04:48:24.846Z,28.55
2022-10-13T04:51:27.293Z,30.42
2022-10-13T04:54:29.795Z,26.00
2022-10-13T04:57:32.086Z,29.98
2022-10-13T05:00:34.962Z,32.78
2022-10-13T05:03:37.262Z,27.67
2022-10-13T05:10:06.447Z,28.83
2022-10-13T05:13:10.232Z,32.63
2022-10-13T05:16:15.008Z,29.25
2022-10-13T05:19:20.482Z,28.98
2022-10-13T05:22:26.484Z,31.83
2022-10-13T05:25:32.979Z,33.10
2022-10-13T05:28:36.593Z,31.65
2022-10-13T05:31:40.251Z,31.47
2022-10-13T05:34:42.642Z,35.78
2022-10-13T05:37:45.131Z,29.02
2022-10-13T05:40:47.408Z,38.70
2022-10-13T05:43:53.317Z,33.70
2022-10-13T05:46:56.337Z,33.25
2022-10-13T05:50:00.930Z,29.00
2022-10-13T05:53:03.289Z,36.80
2022-10-13T05:56:12.850Z,30.67
2022-10-13T05:59:23.347Z,39.03
2022-10-13T06:02:36.247Z,33.63
2022-10-13T06:05:40.712Z,32.88
2022-10-13T06:08:43.056Z,34.75
2022-10-13T06:11:46.280Z,33.25
2022-10-13T06:14:48.975Z,36.05
2022-10-13T06:17:54.298Z,32.83
2022-10-13T06:20:56.552Z,46.55
2022-10-13T06:23:59.059Z,32.58
2022-10-13T06:27:01.280Z,40.05
2022-10-13T06:30:04.400Z,33.47
2022-10-13T06:33:06.674Z,43.65
2022-10-13T06:36:10.615Z,30.90
2022-10-13T06:39:13.119Z,33.63
2022-10-13T06:42:17.574Z,30.75
2022-10-13T06:45:20.105Z,36.22
2022-10-13T06:48:22.593Z,36.42
2022-10-13T06:51:24.880Z,30.10
2022-10-13T06:54:27.634Z,36.55
2022-10-13T06:57:29.878Z,35.55
2022-10-13T07:00:32.761Z,30.80
2022-10-13T07:03:35.794Z,33.40
2022-10-13T07:06:39.180Z,31.80
2022-10-13T07:09:41.367Z,36.13
2022-10-13T07:12:43.841Z,33.30
2022-10-13T07:15:46.346Z,29.10
2022-10-13T07:18:49.228Z,28.05
2022-10-13T07:21:51.851Z,41.65
2022-10-13T07:24:55.224Z,32.92
2022-10-13T07:27:59.257Z,28.65
2022-10-13T07:31:07.854Z,32.63
2022-10-13T07:34:13.093Z,23.52
2022-10-13T07:37:15.606Z,27.77
2022-10-13T07:40:17.825Z,22.67
2022-10-13T07:43:20.303Z,22.27
2022-10-13T07:46:23.268Z,22.83
2022-10-13T07:49:25.777Z,19.37
2022-10-13T07:52:28.044Z,18.37
2022-10-13T07:55:30.696Z,19.95
2022-10-13T07:58:36.142Z,15.90
2022-10-13T08:01:38.690Z,22.08
2022-10-13T08:04:47.929Z,16.73
2022-10-13T08:07:52.385Z,18.58
2022-10-13T08:11:10.619Z,16.55
2022-10-13T08:14:14.640Z,20.42
2022-10-13T08:17:17.826Z,26.65
2022-10-13T08:20:20.229Z,18.15
2022-10-13T08:23:22.735Z,21.62
2022-10-13T08:26:28.555Z,19.35
2022-10-13T08:29:31.222Z,19.10
2022-10-13T08:32:33.583Z,17.10
2022-10-13T08:35:36.043Z,16.10
2022-10-13T08:38:38.301Z,18.65
2022-10-13T08:41:46.337Z,13.67
2022-10-13T08:48:23.135Z,14.87
2022-10-13T08:51:25.431Z,17.83
2022-10-13T08:54:28.134Z,19.00
2022-10-13T08:57:30.725Z,17.15
2022-10-13T09:00:33.239Z,17.60
2022-10-13T09:03:52.764Z,15.60
2022-10-13T09:07:03.206Z,16.65
2022-10-13T09:10:07.364Z,21.98
2022-10-13T09:13:10.712Z,19.70
2022-10-13T09:16:13.052Z,14.40
2022-10-13T09:19:32.064Z,20.40
2022-10-13T09:22:39.083Z,15.88
2022-10-13T09:25:49.467Z,22.70
2022-10-13T09:28:53.067Z,14.07
2022-10-13T09:32:15.208Z,14.75
2022-10-13T09:35:23.732Z,17.35
2022-10-13T09:38:30.234Z,15.32
2022-10-13T09:41:34.015Z,17.90
2022-10-13T09:44:36.655Z,12.25
2022-10-13T09:47:39.546Z,22.60
2022-10-13T09:50:49.642Z,11.77
2022-10-13T09:53:52.487Z,14.82
2022-10-13T09:57:01.444Z,17.27
2022-10-13T10:00:19.279Z,16.30
2022-10-13T10:03:33.732Z,14.40
2022-10-13T10:06:37.243Z,16.58
2022-10-13T10:09:44.908Z,9.73
2022-10-13T10:12:47.987Z,14.45
2022-10-13T10:16:00.303Z,14.83
2022-10-13T10:19:16.603Z,17.50
2022-10-13T10:23:13.555Z,16.23
2022-10-13T10:26:25.013Z,14.95
2022-10-13T10:29:49.165Z,8.93
2022-10-13T10:32:54.671Z,10.13
2022-10-13T10:36:16.772Z,15.57
2022-10-13T10:39:46.547Z,13.75
2022-10-13T10:43:04.736Z,11.07
2022-10-13T10:46:24.665Z,11.45
2022-10-13T10:49:32.610Z,13.98
2022-10-13T10:52:57.717Z,16.48
2022-10-13T10:56:37.451Z,11.77
2022-10-13T10:59:40.292Z,9.70
2022-10-13T11:03:04.991Z,15.30
2022-10-13T11:06:16.446Z,13.73
2022-10-13T11:09:41.513Z,10.65
2022-10-13T11:12:52.911Z,8.82
2022-10-13T11:15:56.045Z,13.25
2022-10-13T11:19:05.940Z,11.77
2022-10-13T11:22:17.007Z,10.90
2022-10-13T11:25:40.644Z,11.90
2022-10-13T11:31:53.397Z,13.15
2022-10-13T11:35:13.424Z,13.10
2022-10-13T11:38:38.169Z,17.40
2022-10-13T11:42:03.331Z,13.73
2022-10-13T11:45:34.667Z,14.75
2022-10-13T11:49:01.986Z,13.77
2022-10-13T11:52:23.003Z,14.13
2022-10-13T11:55:53.736Z,12.88
2022-10-13T11:58:55.961Z,12.88
2022-10-13T12:02:18.985Z,12.90
2022-10-13T12:05:25.322Z,13.18
2022-10-13T12:08:29.484Z,12.70
2022-10-13T12:11:35.480Z,16.92
2022-10-13T12:14:41.060Z,18.00
2022-10-13T12:17:44.496Z,13.10
2022-10-13T12:20:56.647Z,15.57
2022-10-13T12:24:09.828Z,11.95
2022-10-13T12:27:21.578Z,11.07
2022-10-13T12:30:37.700Z,15.68
2022-10-13T12:33:39.972Z,13.20
2022-10-13T12:36:45.357Z,14.47
2022-10-13T12:39:48.506Z,12.88
2022-10-13T12:42:51.703Z,13.70
2022-10-13T12:45:56.395Z,13.98
2022-10-13T12:49:05.541Z,13.90
2022-10-13T12:52:16.799Z,15.32
2022-10-13T12:55:21.578Z,15.18
2022-10-13T12:58:30.698Z,12.00
2022-10-13T13:01:35.178Z,12.10
2022-10-13T13:04:37.370Z,12.10
2022-10-13T13:07:39.927Z,14.80
2022-10-13T13:10:54.988Z,14.80
2022-10-13T13:14:22.525Z,13.27
2022-10-13T13:17:56.590Z,17.87
2022-10-13T13:20:55.302Z,17.65
2022-10-13T13:23:57.598Z,14.50
2022-10-13T13:27:01.998Z,13.23
2022-10-13T13:30:05.014Z,13.38
2022-10-13T13:33:09.067Z,11.98
2022-10-13T13:36:20.014Z,14.07
2022-10-13T13:39:26.659Z,14.60
2022-10-13T13:42:29.338Z,10.30
2022-10-13T13:45:33.814Z,14.02
2022-10-13T13:48:37.283Z,14.55
2022-10-13T13:51:39.981Z,12.70
2022-10-13T13:54:42.302Z,18.08
2022-10-13T13:57:44.877Z,31.42
2022-10-13T14:00:47.368Z,11.10
2022-10-13T14:03:49.852Z,12.53
2022-10-13T14:06:52.885Z,15.73
2022-10-13T14:09:57.927Z,18.08
2022-10-13T14:13:03.883Z,14.52
2022-10-13T14:16:06.919Z,17.10
2022-10-13T14:19:10.220Z,18.03
2022-10-13T14:22:12.932Z,14.07
2022-10-13T14:25:15.295Z,19.37
2022-10-13T14:28:18.606Z,14.77
2022-10-13T14:31:20.952Z,15.63
2022-10-13T14:34:23.695Z,18.13
2022-10-13T14:37:30.318Z,16.33
2022-10-13T14:40:35.400Z,21.55
2022-10-13T14:43:37.672Z,18.12
2022-10-13T14:46:41.435Z,12.02
2022-10-13T14:49:43.626Z,24.83
2022-10-13T14:52:46.138Z,18.48
2022-10-13T14:55:48.683Z,18.10
2022-10-13T14:58:53.257Z,15.35
2022-10-13T15:01:55.496Z,13.13
2022-10-13T15:04:58.052Z,17.17
2022-10-13T15:08:00.298Z,14.70
2022-10-13T15:11:03.720Z,15.15
2022-10-13T15:14:06.109Z,15.23
2022-10-13T15:17:08.637Z,17.73
2022-10-13T15:20:11.192Z,15.15
2022-10-13T15:23:15.589Z,14.80
2022-10-13T15:26:21.754Z,17.73
2022-10-13T15:29:24.377Z,23.77
2022-10-13T15:32:26.971Z,12.30
2022-10-13T15:35:31.233Z,12.20
2022-10-13T15:38:33.604Z,16.42
2022-10-13T15:41:36.223Z,20.42
2022-10-13T15:45:08.090Z,15.55
2022-10-13T15:48:03.587Z,15.23
2022-10-13T15:51:14.049Z,13.48
2022-10-13T15:54:21.066Z,15.77
2022-10-13T15:57:23.475Z,19.15
2022-10-13T16:00:26.071Z,16.67
2022-10-13T16:03:29.901Z,14.43
2022-10-13T16:06:33.681Z,21.87
2022-10-13T16:09:36.218Z,19.02
2022-10-13T16:12:39.208Z,14.63
2022-10-13T16:15:42.659Z,16.67
2022-10-13T16:18:45.329Z,15.27
2022-10-13T16:21:47.855Z,21.67
2022-10-13T16:24:50.299Z,21.92
2022-10-13T16:27:52.817Z,21.80
2022-10-13T16:30:55.063Z,17.55
2022-10-13T16:33:57.680Z,21.05
2022-10-13T16:37:00.030Z,16.10
2022-10-13T16:40:02.575Z,19.42
2022-10-13T16:43:08.451Z,27.23
2022-10-13T16:46:14.751Z,22.83
2022-10-13T16:49:17.287Z,18.92
2022-10-13T16:52:19.807Z,18.45
2022-10-13T16:55:24.147Z,31.50
2022-10-13T16:58:26.993Z,20.27
2022-10-13T17:01:30.426Z,17.12
2022-10-13T17:04:33.379Z,16.67
2022-10-13T17:07:35.885Z,19.00
2022-10-13T17:10:38.489Z,19.23
2022-10-13T17:13:40.917Z,20.92
2022-10-13T17:16:44.214Z,16.50
2022-10-13T17:19:46.449Z,19.30
2022-10-13T17:22:49.262Z,17.67
2022-10-13T17:25:54.086Z,20.70
2022-10-13T17:28:56.730Z,26.90
2022-10-13T17:31:59.171Z,23.90
2022-10-13T17:35:01.652Z,24.02
2022-10-13T17:38:03.941Z,24.73
2022-10-13T17:41:08.199Z,23.87
2022-10-13T17:44:11.781Z,19.77
2022-10-13T17:47:14.316Z,22.98
2022-10-13T17:50:17.669Z,26.85
2022-10-13T17:53:20.481Z,26.58
2022-10-13T17:56:24.571Z,23.77
2022-10-13T17:59:27.198Z,27.13
2022-10-13T18:02:29.420Z,22.20
2022-10-13T18:05:32.538Z,23.95
2022-10-13T18:08:35.251Z,23.95
2022-10-13T18:11:38.015Z,21.30
2022-10-13T18:14:40.341Z,26.85
2022-10-13T18:17:42.840Z,23.42
2022-10-13T18:20:45.090Z,50.95
2022-10-13T18:23:47.622Z,30.02
2022-10-13T18:26:49.918Z,25.05
2022-10-13T18:29:59.341Z,24.85
2022-10-13T18:33:04.578Z,28.27
2022-10-13T18:36:21.583Z,24.73
2022-10-13T18:39:26.859Z,19.35
2022-10-13T18:42:29.477Z,25.77
2022-10-13T18:45:35.455Z,21.12
2022-10-13T18:48:38.345Z,21.27
2022-10-13T18:51:41.500Z,20.35
2022-10-13T18:54:45.499Z,24.95
2022-10-13T18:57:56.487Z,23.77
2022-10-13T19:01:01.280Z,25.05
2022-10-13T19:04:04.877Z,29.12
2022-10-13T19:07:07.561Z,24.85
2022-10-13T19:10:10.173Z,26.98
2022-10-13T19:13:12.715Z,28.23
2022-10-13T19:16:17.850Z,25.75
2022-10-13T19:19:20.357Z,20.52
2022-10-13T19:22:23.584Z,20.77
2022-10-13T19:25:26.664Z,47.65
2022-10-13T19:28:28.993Z,29.65
2022-10-13T19:31:33.394Z,26.00
2022-10-13T19:34:38.488Z,24.77
2022-10-13T19:37:41.378Z,21.67
2022-10-13T19:40:50.039Z,27.92
2022-10-13T19:43:52.605Z,21.23
2022-10-13T19:46:57.152Z,22.50
2022-10-13T19:50:02.310Z,20.33
2022-10-13T19:53:05.740Z,22.27
2022-10-13T19:56:09.392Z,19.52
2022-10-13T19:59:11.953Z,22.75
2022-10-13T20:02:14.683Z,23.87
2022-10-13T20:05:19.878Z,23.55
2022-10-13T20:08:24.475Z,19.33
2022-10-13T20:11:27.016Z,25.20
2022-10-13T20:14:29.272Z,27.45
2022-10-13T20:17:31.795Z,42.15
2022-10-13T20:20:37.590Z,31.48
2022-10-13T20:23:41.579Z,31.12
2022-10-13T20:26:43.878Z,24.92
2022-10-13T20:29:46.767Z,25.10
2022-10-13T20:32:48.984Z,23.65
2022-10-13T20:35:51.533Z,29.02
2022-10-13T20:38:56.843Z,26.27
2022-10-13T20:41:59.717Z,24.17
2022-10-13T20:45:01.932Z,24.37
2022-10-13T20:48:04.431Z,31.50
2022-10-13T20:51:11.808Z,24.40
2022-10-13T20:54:15.790Z,29.25
2022-10-13T20:57:18.247Z,26.35
2022-10-13T21:00:21.955Z,28.08
2022-10-13T21:03:25.515Z,25.77
2022-10-13T21:06:29.371Z,24.95
2022-10-13T21:09:31.982Z,29.77
2022-10-13T21:12:34.641Z,29.42
2022-10-13T21:15:39.284Z,28.60
2022-10-13T21:18:48.920Z,26.33
2022-10-13T21:21:51.368Z,24.95
2022-10-13T21:24:54.076Z,35.60
2022-10-13T21:27:56.634Z,23.00
2022-10-13T21:31:04.218Z,28.85
2022-10-13T21:34:06.554Z,24.48
2022-10-13T21:37:09.080Z,28.85
2022-10-13T21:40:11.511Z,29.55
2022-10-13T21:43:14.037Z,31.55
2022-10-13T21:46:25.084Z,26.42
2022-10-13T21:49:27.943Z,30.30
2022-10-13T21:52:30.454Z,25.48
2022-10-13T21:55:33.161Z,25.45
2022-10-13T21:58:35.865Z,29.73
2022-10-13T22:01:38.770Z,29.03
2022-10-13T22:04:43.734Z,28.77
2022-10-13T22:07:45.987Z,29.85
2022-10-13T22:10:48.494Z,28.50
2022-10-13T22:13:51.239Z,30.60
2022-10-13T22:16:53.776Z,28.08
2022-10-13T22:19:55.991Z,26.37
2022-10-13T22:22:58.509Z,26.37
2022-10-13T22:26:00.746Z,25.83
2022-10-13T22:29:05.824Z,28.25
2022-10-13T22:32:08.296Z,24.48
2022-10-13T22:35:10.938Z,27.37
2022-10-13T22:38:14.419Z,26.52
2022-10-13T22:41:18.485Z,27.75
2022-10-13T22:44:21.208Z,27.73
2022-10-13T22:47:25.092Z,27.20
2022-10-13T22:50:27.718Z,25.52
2022-10-13T22:53:31.730Z,27.70
2022-10-13T22:56:34.926Z,27.55
2022-10-13T22:59:37.789Z,30.25
2022-10-13T23:02:40.030Z,31.52
2022-10-13T23:05:46.190Z,27.85
2022-10-13T23:08:49.257Z,32.20
2022-10-13T23:11:54.155Z,30.60
2022-10-13T23:15:00.303Z,28.87
2022-10-13T23:18:02.829Z,30.65
2022-10-13T23:21:11.907Z,34.35
2022-10-13T23:24:14.567Z,34.42
2022-10-13T23:27:17.026Z,30.85
2022-10-13T23:30:19.555Z,29.10
2022-10-13T23:33:21.801Z,36.55
2022-10-13T23:36:26.621Z,30.60
2022-10-13T23:39:29.614Z,25.62
2022-10-13T23:42:32.279Z,35.45
2022-10-13T23:45:34.484Z,27.77
2022-10-13T23:48:38.055Z,34.08
2022-10-13T23:51:43.154Z,30.67
2022-10-13T23:54:45.857Z,28.90
2022-10-13T23:57:48.789Z,30.87
